»·PEaware :: N698SP KSNA-KBUR

N698SP :: KSNA-KBUR

FLIGHT INFORMATION

Flight Status: Arrived
Operator: Privately registered:
United States
More flights under this callsign
Pilot: Kevin S. (26378)
Aircraft: SOCATA TBM-900
(TBM9)
More flights by this aircraft type
Origin: KSNA John Wayne-Orange Co
United States
Destination: KBUR Bob Hope-Burbank
United States
More flights between these airports :: More routes between these airports
Route: +SLI V23 LAX LAX316R SILEX
File this flight plan on PilotEdge
Remarks: TEC route CSTP2
Altitude:
(Current/Filed)
6,000ft
Speed:
(Current/Filed)
200kts
Departed: 29-Dec-19 11:02 AM
Arrived: 29-Dec-19 11:27 AM
Distance/Time
Traveled:
40nm/0:25
Distance/Time
To Go:
Arrived

Flight Plot

Page will automatically refresh every two minutes.


Map Options




Map Legend


Flown Route
Filed Route
Departure Airport
Arrival Airport
Navaid (VOR, NDB)
Fix

Horizontal Profiles

Position Reports

Time Latitude Longitude Heading Altitude Ground
Speed
29-Dec-19 10:33 33.675701 -117.871586 220 59ft 0kts
29-Dec-19 10:34 33.675701 -117.871586 220 59ft 0kts
29-Dec-19 10:35 33.675700 -117.871586 220 59ft 0kts
29-Dec-19 10:36 33.675701 -117.871586 220 59ft 0kts
29-Dec-19 10:37 33.675701 -117.871586 220 59ft 0kts
29-Dec-19 10:38 33.675701 -117.871586 220 59ft 0kts
29-Dec-19 10:39 33.675701 -117.871586 220 59ft 0kts
29-Dec-19 10:40 33.675701 -117.871586 220 59ft 0kts
29-Dec-19 10:41 33.675700 -117.871586 220 59ft 0kts
29-Dec-19 10:42 33.675700 -117.871586 220 59ft 0kts
29-Dec-19 10:43 33.675701 -117.871586 220 59ft 0kts
29-Dec-19 10:44 33.675701 -117.871586 220 59ft 0kts
29-Dec-19 10:45 33.675701 -117.871586 220 59ft 0kts
29-Dec-19 10:46 33.675701 -117.871586 220 59ft 0kts
29-Dec-19 10:47 33.675701 -117.871586 220 59ft 0kts
29-Dec-19 10:48 33.675701 -117.871586 220 59ft 0kts
29-Dec-19 10:49 33.675700 -117.871586 220 59ft 0kts
29-Dec-19 10:50 33.675536 -117.871426 106 59ft 6kts
29-Dec-19 10:51 33.676925 -117.869542 27 59ft 20kts
29-Dec-19 10:52 33.680352 -117.867549 27 59ft 0kts
29-Dec-19 10:53 33.681232 -117.866788 78 59ft 6kts
29-Dec-19 10:54 33.681182 -117.866412 127 59ft 0kts
29-Dec-19 10:55 33.681182 -117.866412 127 59ft 0kts
29-Dec-19 10:56 33.681182 -117.866412 127 59ft 0kts
29-Dec-19 10:57 33.680163 -117.865991 208 59ft 0kts
29-Dec-19 10:58 33.680163 -117.865991 208 59ft 0kts
29-Dec-19 10:59 33.680163 -117.865991 208 59ft 0kts
29-Dec-19 11:00 33.680163 -117.865991 208 59ft 0kts
29-Dec-19 11:01 33.671915 -117.871072 205 251ft 120kts
29-Dec-19 11:02 33.647993 -117.908585 241 1208ft 194kts
29-Dec-19 11:03 33.619934 -117.968369 241 1975ft 191kts
29-Dec-19 11:04 33.628436 -118.022478 321 2692ft 173kts
29-Dec-19 11:05 33.660236 -118.063043 311 4192ft 177kts
29-Dec-19 11:06 33.692973 -118.109908 311 5720ft 186kts
29-Dec-19 11:07 33.729537 -118.162065 311 6007ft 220kts
29-Dec-19 11:08 33.770989 -118.218022 313 5999ft 224kts
29-Dec-19 11:09 33.813166 -118.273145 313 6007ft 224kts
29-Dec-19 11:10 33.855297 -118.327969 313 6007ft 224kts
29-Dec-19 11:11 33.896147 -118.384738 312 5997ft 225kts
29-Dec-19 11:12 33.934289 -118.439442 312 5997ft 226kts
29-Dec-19 11:13 33.976181 -118.490838 322 5393ft 208kts
29-Dec-19 11:14 34.018624 -118.535231 322 5000ft 189kts
29-Dec-19 11:15 34.064069 -118.555148 356 5052ft 176kts
29-Dec-19 11:16 34.108328 -118.569285 312 4913ft 180kts
29-Dec-19 11:17 34.140215 -118.616629 312 4011ft 178kts
29-Dec-19 11:18 34.170717 -118.661199 311 3992ft 178kts
29-Dec-19 11:19 34.206485 -118.680921 50 3932ft 132kts
29-Dec-19 11:20 34.193893 -118.631807 111 3669ft 184kts
29-Dec-19 11:21 34.197462 -118.576477 71 3590ft 172kts
29-Dec-19 11:22 34.200001 -118.517890 88 3169ft 189kts
29-Dec-19 11:23 34.199224 -118.462953 89 2283ft 114kts
29-Dec-19 11:24 34.198673 -118.424929 89 1686ft 112kts
29-Dec-19 11:25 34.198336 -118.388004 88 1128ft 105kts
29-Dec-19 11:26 34.197860 -118.362037 90 733ft 33kts
29-Dec-19 11:27 34.196793 -118.360165 149 733ft 4kts
29-Dec-19 11:28 34.196695 -118.359551 91 733ft 14kts

Navigation Log

Ident Type
Flight plan parsing failed, navigation log unavailable